Time;durP1;ratioP1;P1;durP2;ratioP2;P2;SDS_P1;SDS_P2;PMS_P1;PMS_P2;Temp;Humidity;BMP_temperature;BMP_pressure;BME280_temperature;BME280_humidity;BME280_pressure;Samples;Min_cycle;Max_cycle;Signal;HPM_P1;HPM_P2
2021/06/11 00:00:54;;;;;;;6.18;4.82;;;21.20;90.90;;;;;;5070975;28;20031;-78
2021/06/11 00:03:20;;;;;;;5.47;5.07;;;21.20;90.90;;;;;;5078299;28;20791;-77
2021/06/11 00:05:46;;;;;;;7.32;4.82;;;21.10;90.90;;;;;;5078369;28;20073;-78
2021/06/11 00:08:12;;;;;;;5.93;5.47;;;21.20;90.90;;;;;;5090250;28;20024;-77
2021/06/11 00:10:38;;;;;;;5.65;5.15;;;21.20;90.90;;;;;;5084132;28;20032;-78
2021/06/11 00:13:06;;;;;;;5.40;5.10;;;21.20;90.90;;;;;;5089672;28;20035;-77
2021/06/11 00:15:32;;;;;;;5.55;5.15;;;21.20;90.80;;;;;;5072041;28;20025;-78
2021/06/11 00:17:58;;;;;;;5.85;5.35;;;21.20;90.70;;;;;;5089596;28;20028;-77
2021/06/11 00:20:24;;;;;;;6.25;5.45;;;21.20;90.80;;;;;;5089667;28;20027;-78
2021/06/11 00:22:50;;;;;;;5.40;4.90;;;21.20;90.80;;;;;;5090058;28;20791;-76
2021/06/11 00:25:24;;;;;;;6.25;5.07;;;21.20;90.80;;;;;;5089931;28;20385;-77
2021/06/11 00:28:01;;;;;;;5.63;5.13;;;21.20;90.90;;;;;;5090980;28;20024;-77
2021/06/11 00:30:29;;;;;;;5.90;5.40;;;21.10;91.00;;;;;;5093775;28;20119;-77
2021/06/11 00:32:56;;;;;;;5.38;4.97;;;21.10;91.00;;;;;;5093754;28;20051;-78
2021/06/11 00:35:29;;;;;;;5.75;5.35;;;21.10;91.00;;;;;;5093601;28;20043;-78
2021/06/11 00:37:55;;;;;;;7.07;5.28;;;21.10;91.00;;;;;;5085396;28;20075;-78
2021/06/11 00:40:21;;;;;;;5.43;4.93;;;21.10;91.10;;;;;;5075965;28;20028;-77
2021/06/11 00:42:47;;;;;;;5.70;5.20;;;21.10;91.30;;;;;;5057946;28;20112;-77
2021/06/11 00:45:13;;;;;;;5.40;4.90;;;21.00;91.30;;;;;;5064967;28;20031;-78
2021/06/11 00:47:38;;;;;;;6.93;5.47;;;21.00;91.40;;;;;;5095745;28;20110;-78
2021/06/11 00:50:06;;;;;;;7.93;5.65;;;21.00;91.70;;;;;;5095900;28;20458;-78
2021/06/11 00:52:33;;;;;;;6.63;4.97;;;21.00;91.30;;;;;;5095859;28;20050;-78
2021/06/11 00:55:00;;;;;;;10.05;5.18;;;21.00;91.30;;;;;;5095952;28;20024;-78
2021/06/11 00:57:26;;;;;;;5.20;4.78;;;21.00;91.20;;;;;;5095891;28;20024;-79
2021/06/11 00:59:53;;;;;;;5.53;5.10;;;21.00;91.30;;;;;;5095863;28;20032;-78
2021/06/11 01:02:22;;;;;;;5.65;5.15;;;21.10;91.20;;;;;;5096007;28;20026;-78
2021/06/11 01:04:48;;;;;;;7.28;5.80;;;21.00;91.30;;;;;;5094218;28;20027;-78
2021/06/11 01:07:14;;;;;;;4.88;4.47;;;21.00;91.50;;;;;;5095534;28;20099;-78
2021/06/11 01:09:41;;;;;;;5.13;4.75;;;21.00;91.50;;;;;;5085647;28;20021;-78
2021/06/11 01:12:10;;;;;;;5.07;4.50;;;21.00;91.40;;;;;;5076766;28;20028;-78
2021/06/11 01:14:37;;;;;;;5.03;4.18;;;21.00;91.30;;;;;;5075337;28;20621;-78
2021/06/11 01:17:03;;;;;;;6.45;5.15;;;21.10;91.40;;;;;;5075193;28;20059;-78
2021/06/11 01:19:37;;;;;;;5.20;4.70;;;21.10;91.70;;;;;;5075148;28;20036;-78
2021/06/11 01:22:18;;;;;;;8.25;4.68;;;21.10;91.20;;;;;;5061292;28;20012;-78
2021/06/11 01:25:10;;;;;;;4.60;4.20;;;21.10;91.20;;;;;;5095481;28;20028;-78
2021/06/11 01:27:38;;;;;;;5.57;4.90;;;21.00;91.40;;;;;;5093889;28;20110;-78
2021/06/11 01:30:09;;;;;;;5.50;5.10;;;21.00;91.50;;;;;;5095073;28;20164;-78
2021/06/11 01:32:38;;;;;;;5.13;4.68;;;21.00;91.40;;;;;;5095194;28;20056;-78
2021/06/11 01:35:09;;;;;;;5.35;4.95;;;21.00;91.40;;;;;;5077005;28;20508;-78
2021/06/11 01:37:37;;;;;;;5.15;4.75;;;21.00;91.70;;;;;;5095244;28;20028;-78
2021/06/11 01:40:10;;;;;;;4.53;4.22;;;21.00;91.70;;;;;;5094747;28;20491;-78
2021/06/11 01:42:39;;;;;;;5.05;4.65;;;20.90;91.70;;;;;;5095078;28;20023;-78
2021/06/11 01:45:09;;;;;;;4.75;4.35;;;20.90;91.80;;;;;;5094681;28;20024;-78
2021/06/11 01:47:50;;;;;;;5.45;4.70;;;20.90;91.80;;;;;;5076699;28;20020;-78
2021/06/11 01:50:20;;;;;;;4.88;4.47;;;20.90;91.80;;;;;;5095017;28;20048;-78
2021/06/11 01:52:47;;;;;;;4.90;4.50;;;20.90;91.80;;;;;;5076877;28;20358;-78
2021/06/11 01:55:13;;;;;;;4.95;4.57;;;20.90;91.70;;;;;;5094915;28;20070;-78
2021/06/11 01:57:41;;;;;;;5.00;4.60;;;20.90;91.80;;;;;;5076588;28;20038;-77
2021/06/11 02:00:07;;;;;;;5.38;4.88;;;20.90;91.90;;;;;;5094732;28;20065;-78
2021/06/11 02:02:35;;;;;;;4.85;4.45;;;20.90;91.90;;;;;;5093603;28;20051;-78
2021/06/11 02:05:03;;;;;;;4.75;4.45;;;20.80;92.00;;;;;;5074551;28;20377;-78
2021/06/11 02:07:29;;;;;;;5.07;4.10;;;20.80;92.10;;;;;;5074479;28;20071;-79
2021/06/11 02:09:57;;;;;;;6.32;4.57;;;20.80;92.10;;;;;;5074631;28;20025;-78
2021/06/11 02:12:22;;;;;;;4.85;4.45;;;20.80;92.00;;;;;;5074379;28;20060;-78
2021/06/11 02:14:48;;;;;;;6.28;4.57;;;20.80;91.90;;;;;;5074295;28;20059;-78
2021/06/11 02:17:15;;;;;;;4.78;4.47;;;20.90;91.60;;;;;;5074143;28;20024;-78
2021/06/11 02:19:42;;;;;;;4.82;4.40;;;21.00;91.40;;;;;;5074044;28;20035;-78
2021/06/11 02:22:09;;;;;;;5.50;5.10;;;21.00;91.30;;;;;;5074002;28;20081;-78
2021/06/11 02:24:37;;;;;;;4.90;4.32;;;21.10;91.30;;;;;;5056268;28;20021;-78
2021/06/11 02:27:04;;;;;;;4.15;3.85;;;21.10;91.10;;;;;;5073950;28;20022;-78
2021/06/11 02:29:30;;;;;;;5.53;4.47;;;21.20;91.20;;;;;;5074025;28;20111;-78
2021/06/11 02:31:56;;;;;;;5.68;4.57;;;21.20;91.20;;;;;;5073720;28;20045;-78
2021/06/11 02:34:22;;;;;;;4.80;4.50;;;21.20;91.40;;;;;;5073815;28;20031;-78
2021/06/11 02:36:47;;;;;;;4.78;4.38;;;21.20;91.80;;;;;;5072551;28;20027;-78
2021/06/11 02:39:13;;;;;;;5.53;4.70;;;21.20;92.50;;;;;;5057711;28;20029;-78
2021/06/11 02:41:43;;;;;;;4.32;4.03;;;21.20;93.10;;;;;;5093898;28;20446;-78
2021/06/11 02:44:11;;;;;;;6.78;4.15;;;21.20;94.00;;;;;;5075782;28;20466;-78
2021/06/11 02:47:06;;;;;;;5.25;4.75;;;21.20;93.60;;;;;;5093938;28;20039;-78
2021/06/11 02:49:42;;;;;;;5.05;4.63;;;21.20;93.90;;;;;;5040744;28;20036;-78
2021/06/11 02:52:08;;;;;;;4.60;4.35;;;21.20;94.10;;;;;;5085361;28;20485;-78
2021/06/11 02:54:44;;;;;;;5.05;4.68;;;21.20;94.30;;;;;;5093321;28;20020;-78
2021/06/11 02:57:20;;;;;;;4.35;3.97;;;21.20;94.40;;;;;;5075443;28;20028;-78
2021/06/11 02:59:48;;;;;;;4.82;4.43;;;21.20;94.60;;;;;;5075078;28;20474;-78
2021/06/11 03:02:20;;;;;;;5.70;5.13;;;21.10;94.90;;;;;;5093196;28;20111;-78
2021/06/11 03:04:47;;;;;;;7.22;5.20;;;21.10;95.40;;;;;;5093488;28;20024;-78
2021/06/11 03:07:31;;;;;;;5.07;4.57;;;21.10;96.00;;;;;;5093574;28;20028;-78
2021/06/11 03:10:03;;;;;;;5.20;4.70;;;21.00;96.50;;;;;;5093135;28;20035;-78
2021/06/11 03:12:32;;;;;;;5.05;4.50;;;21.00;96.60;;;;;;5093452;28;20036;-78
2021/06/11 03:14:58;;;;;;;5.20;4.90;;;21.00;97.10;;;;;;5093218;28;20069;-78
2021/06/11 03:17:32;;;;;;;5.03;4.65;;;20.90;96.90;;;;;;5093379;28;20024;-78
2021/06/11 03:20:05;;;;;;;5.10;4.53;;;20.90;97.10;;;;;;5075171;28;20390;-78
2021/06/11 03:22:39;;;;;;;12.10;4.50;;;20.80;97.10;;;;;;5057984;28;20034;-78
2021/06/11 03:25:33;;;;;;;6.22;4.60;;;20.80;97.60;;;;;;5093410;28;20086;-78
2021/06/11 03:28:05;;;;;;;5.20;4.78;;;20.80;97.20;;;;;;5092730;28;20088;-78
2021/06/11 03:30:31;;;;;;;3.97;3.72;;;20.80;97.30;;;;;;5093230;28;20016;-78
2021/06/11 03:33:09;;;;;;;5.13;4.68;;;20.80;97.50;;;;;;5092746;28;20058;-78
2021/06/11 03:35:43;;;;;;;5.10;4.57;;;20.80;97.80;;;;;;5074724;28;20036;-78
2021/06/11 03:38:14;;;;;;;4.60;4.20;;;20.70;98.20;;;;;;5093116;28;20027;-78
2021/06/11 03:40:42;;;;;;;4.67;4.10;;;20.70;98.20;;;;;;5092899;28;20072;-78
2021/06/11 03:43:09;;;;;;;4.82;4.43;;;20.60;98.50;;;;;;5093135;28;20289;-78
2021/06/11 03:45:36;;;;;;;6.60;4.45;;;20.70;98.10;;;;;;5093068;28;20020;-78
2021/06/11 03:48:05;;;;;;;3.88;3.67;;;20.70;97.80;;;;;;5092898;28;20020;-78
2021/06/11 03:50:32;;;;;;;3.63;3.40;;;20.70;97.70;;;;;;5093051;28;20153;-78
2021/06/11 03:53:01;;;;;;;4.28;3.95;;;20.70;97.60;;;;;;5092610;28;20025;-78
2021/06/11 03:55:29;;;;;;;3.67;3.38;;;20.80;97.30;;;;;;5054659;28;20044;-78
2021/06/11 03:58:08;;;;;;;3.97;3.67;;;20.70;97.20;;;;;;5062015;28;20020;-78
2021/06/11 04:00:35;;;;;;;3.88;3.50;;;20.70;96.70;;;;;;5092985;28;20024;-78
2021/06/11 04:03:01;;;;;;;3.35;3.15;;;20.80;96.70;;;;;;5096549;28;20099;-78
2021/06/11 04:05:27;;;;;;;3.85;3.55;;;20.80;96.70;;;;;;5097010;28;20112;-78
2021/06/11 04:07:55;;;;;;;4.05;3.85;;;20.70;96.60;;;;;;5096731;28;20024;-78
2021/06/11 04:10:35;;;;;;;3.40;3.20;;;20.70;96.80;;;;;;5078484;28;20035;-78
2021/06/11 04:13:18;;;;;;;3.72;3.17;;;20.70;96.50;;;;;;5058670;28;20028;-78
2021/06/11 04:15:48;;;;;;;4.65;3.33;;;20.70;96.20;;;;;;5058556;28;20028;-78
2021/06/11 04:18:22;;;;;;;3.10;2.90;;;20.70;96.20;;;;;;5076592;28;20031;-78
2021/06/11 04:20:52;;;;;;;4.78;3.15;;;20.80;95.80;;;;;;5058453;28;20389;-78
2021/06/11 04:23:23;;;;;;;4.28;3.97;;;20.80;96.20;;;;;;5076488;28;20070;-78
2021/06/11 04:25:52;;;;;;;3.60;3.38;;;20.80;96.50;;;;;;5076714;28;20023;-78
2021/06/11 04:28:19;;;;;;;3.17;2.97;;;20.80;96.60;;;;;;5076220;28;20632;-78
2021/06/11 04:30:45;;;;;;;3.25;2.80;;;20.80;96.40;;;;;;5076256;28;20028;-78
2021/06/11 04:33:25;;;;;;;3.80;3.50;;;20.80;96.10;;;;;;5075979;28;20102;-78
2021/06/11 04:35:51;;;;;;;3.17;2.97;;;20.90;96.10;;;;;;5076133;28;20108;-77
2021/06/11 04:38:17;;;;;;;6.15;3.15;;;20.80;96.30;;;;;;5075988;28;20028;-78
2021/06/11 04:40:44;;;;;;;3.17;2.97;;;20.80;96.10;;;;;;5059061;28;20021;-78
2021/06/11 04:43:10;;;;;;;3.08;2.88;;;20.80;95.90;;;;;;5096064;28;20036;-78
2021/06/11 04:45:36;;;;;;;3.90;2.92;;;20.80;95.90;;;;;;5077901;28;20013;-78
2021/06/11 04:48:03;;;;;;;3.67;3.38;;;20.90;96.00;;;;;;5094944;28;20028;-78
2021/06/11 04:50:28;;;;;;;3.20;3.00;;;20.90;96.10;;;;;;5096073;28;20128;-77
2021/06/11 04:52:54;;;;;;;3.33;3.03;;;20.80;96.40;;;;;;5095977;28;20035;-78
2021/06/11 04:55:20;;;;;;;3.63;3.33;;;20.80;96.50;;;;;;5096114;28;20020;-78
2021/06/11 04:57:46;;;;;;;3.38;2.90;;;20.80;96.50;;;;;;5077831;28;20028;-78
2021/06/11 05:00:14;;;;;;;3.65;3.45;;;20.80;96.80;;;;;;5085052;28;20162;-78
2021/06/11 05:02:40;;;;;;;2.92;2.72;;;20.70;96.90;;;;;;5077748;28;20020;-79
2021/06/11 05:05:06;;;;;;;4.15;3.17;;;20.70;96.70;;;;;;5095922;28;20016;-78
2021/06/11 05:07:31;;;;;;;3.55;3.15;;;20.70;96.50;;;;;;5095594;28;20501;-78
2021/06/11 05:09:58;;;;;;;3.25;3.05;;;20.60;96.70;;;;;;5095857;28;20020;-78
2021/06/11 05:12:24;;;;;;;5.45;3.20;;;20.60;96.70;;;;;;5095768;28;20508;-78
2021/06/11 05:14:49;;;;;;;3.00;2.70;;;20.60;96.60;;;;;;5094573;28;20063;-77
2021/06/11 05:17:15;;;;;;;2.97;2.78;;;20.70;96.60;;;;;;5095282;28;20024;-78
2021/06/11 05:19:41;;;;;;;3.03;2.83;;;20.70;96.40;;;;;;5095522;28;20023;-79
2021/06/11 05:22:07;;;;;;;3.22;2.85;;;20.80;96.50;;;;;;5095214;28;20070;-78
2021/06/11 05:24:32;;;;;;;3.45;3.20;;;20.80;96.50;;;;;;5095596;28;20028;-78
2021/06/11 05:26:58;;;;;;;3.00;2.80;;;20.80;96.80;;;;;;5093826;28;20092;-78
2021/06/11 05:29:24;;;;;;;3.58;3.08;;;20.80;96.80;;;;;;5077098;28;20028;-78
2021/06/11 05:31:50;;;;;;;3.40;3.10;;;20.70;96.90;;;;;;5094615;28;20044;-78
2021/06/11 05:34:16;;;;;;;3.25;2.95;;;20.70;97.00;;;;;;5076941;28;20073;-78
2021/06/11 05:36:41;;;;;;;6.93;2.92;;;20.70;97.00;;;;;;5094828;28;20096;-78
2021/06/11 05:39:07;;;;;;;3.20;3.00;;;20.80;97.10;;;;;;5094900;28;20020;-78
2021/06/11 05:41:33;;;;;;;3.05;2.85;;;20.80;97.00;;;;;;5077117;28;20051;-78
2021/06/11 05:43:59;;;;;;;3.10;2.90;;;20.80;97.00;;;;;;5095032;28;20425;-78
2021/06/11 05:46:25;;;;;;;3.65;2.60;;;20.80;96.80;;;;;;5076273;28;20024;-79
2021/06/11 05:48:51;;;;;;;3.30;3.00;;;20.80;96.70;;;;;;5094765;28;20027;-78
2021/06/11 05:51:17;;;;;;;3.10;2.90;;;20.90;96.60;;;;;;5076675;28;20028;-78
2021/06/11 05:53:43;;;;;;;6.88;3.47;;;20.80;96.30;;;;;;5094916;28;20012;-78
2021/06/11 05:56:09;;;;;;;3.15;2.90;;;20.90;96.30;;;;;;5094721;28;20027;-78
2021/06/11 05:58:35;;;;;;;2.95;2.75;;;20.90;96.40;;;;;;5094718;28;20043;-78
2021/06/11 06:01:03;;;;;;;3.67;2.83;;;21.00;96.50;;;;;;5094452;28;20081;-77
2021/06/11 06:03:29;;;;;;;3.08;2.88;;;21.00;96.70;;;;;;5094749;28;20693;-77
2021/06/11 06:05:54;;;;;;;3.17;2.85;;;21.10;97.10;;;;;;5094619;28;20024;-77
2021/06/11 06:08:20;;;;;;;2.88;2.67;;;21.10;96.60;;;;;;5094460;28;20044;-78
2021/06/11 06:10:46;;;;;;;3.22;2.92;;;21.20;96.30;;;;;;5076185;28;20115;-78
2021/06/11 06:13:12;;;;;;;2.78;2.67;;;21.30;96.30;;;;;;5094419;28;20031;-78
2021/06/11 06:15:37;;;;;;;3.38;2.50;;;21.30;96.40;;;;;;5094119;28;20491;-77
2021/06/11 06:18:03;;;;;;;2.80;2.60;;;21.40;96.10;;;;;;5093275;28;20683;-78
2021/06/11 06:20:29;;;;;;;2.97;2.70;;;21.40;96.10;;;;;;5077031;28;20040;-78
2021/06/11 06:22:55;;;;;;;2.80;2.60;;;21.50;96.20;;;;;;5073869;28;20066;-78
2021/06/11 06:25:21;;;;;;;3.30;2.60;;;21.50;96.00;;;;;;5074052;28;20025;-78
2021/06/11 06:27:46;;;;;;;2.92;2.60;;;21.50;96.10;;;;;;5073864;28;20021;-78
2021/06/11 06:30:16;;;;;;;3.25;3.05;;;21.60;95.90;;;;;;5055875;28;20059;-78
2021/06/11 06:32:42;;;;;;;3.10;2.90;;;21.60;95.80;;;;;;5073581;28;20047;-78
2021/06/11 06:35:11;;;;;;;3.63;2.85;;;21.70;95.70;;;;;;5073658;28;20025;-78
2021/06/11 06:37:36;;;;;;;3.47;3.17;;;21.80;95.80;;;;;;5073698;28;20021;-78
2021/06/11 06:40:03;;;;;;;4.00;3.70;;;21.90;95.90;;;;;;5073666;28;20398;-78
2021/06/11 06:42:29;;;;;;;5.03;3.83;;;21.90;95.70;;;;;;5089179;28;20519;-77
2021/06/11 06:44:54;;;;;;;3.78;3.58;;;22.00;95.60;;;;;;5093926;28;20012;-77
2021/06/11 06:47:20;;;;;;;3.53;3.22;;;22.10;95.40;;;;;;5093803;28;20046;-77
2021/06/11 06:49:46;;;;;;;4.18;3.33;;;22.20;94.90;;;;;;5075455;28;20055;-77
2021/06/11 06:52:14;;;;;;;4.63;2.53;;;22.30;94.50;;;;;;5072067;28;20032;-78
2021/06/11 06:54:42;;;;;;;3.13;2.92;;;22.40;94.80;;;;;;5055621;28;20397;-78
2021/06/11 06:57:08;;;;;;;3.42;3.13;;;22.50;94.80;;;;;;5082995;28;20021;-78
2021/06/11 06:59:34;;;;;;;3.22;2.90;;;22.60;94.50;;;;;;5078731;28;20484;-78
2021/06/11 07:02:00;;;;;;;4.90;4.13;;;22.70;94.60;;;;;;5086989;28;20055;-78
2021/06/11 07:04:29;;;;;;;6.72;4.20;;;22.80;94.20;;;;;;5091542;28;20020;-78
2021/06/11 07:06:55;;;;;;;5.07;4.45;;;22.80;94.10;;;;;;5083814;28;20047;-79
2021/06/11 07:09:21;;;;;;;7.07;4.85;;;22.90;93.80;;;;;;5068660;28;20066;-79
2021/06/11 07:11:48;;;;;;;4.78;4.38;;;23.00;93.40;;;;;;5087944;28;20554;-78
2021/06/11 07:14:18;;;;;;;5.43;4.60;;;23.10;93.70;;;;;;5088285;28;20089;-78
2021/06/11 07:16:44;;;;;;;4.63;4.15;;;23.20;93.10;;;;;;5077382;28;20489;-79
2021/06/11 07:19:10;;;;;;;5.38;4.38;;;23.20;92.40;;;;;;5084718;28;20046;-78
2021/06/11 07:21:36;;;;;;;3.88;3.58;;;23.20;92.30;;;;;;5091694;28;20027;-79
2021/06/11 07:24:02;;;;;;;3.95;3.67;;;23.30;92.40;;;;;;5060510;28;20017;-78
2021/06/11 07:26:28;;;;;;;3.60;3.30;;;23.30;92.50;;;;;;5090672;28;20065;-78
2021/06/11 07:28:54;;;;;;;3.83;3.60;;;23.30;92.60;;;;;;5086615;28;20028;-78
2021/06/11 07:31:20;;;;;;;4.07;3.78;;;23.30;92.80;;;;;;5088208;28;20020;-78
2021/06/11 07:33:46;;;;;;;4.18;3.47;;;23.40;92.50;;;;;;5086303;28;20045;-78
2021/06/11 07:36:12;;;;;;;3.58;3.33;;;23.40;92.70;;;;;;5091366;28;20027;-78
2021/06/11 07:38:38;;;;;;;3.50;3.30;;;23.40;92.10;;;;;;5082728;28;20020;-78
2021/06/11 07:41:04;;;;;;;5.25;3.47;;;23.50;92.10;;;;;;5082854;28;20030;-78
2021/06/11 07:43:30;;;;;;;3.30;3.10;;;23.50;91.40;;;;;;5083341;28;20099;-78
2021/06/11 07:45:56;;;;;;;2.88;2.67;;;23.60;91.30;;;;;;5084890;28;20066;-78
2021/06/11 07:48:22;;;;;;;5.45;3.33;;;23.60;91.30;;;;;;5087529;28;20044;-78
2021/06/11 07:50:48;;;;;;;3.50;3.30;;;23.70;92.00;;;;;;5062530;28;20024;-78
2021/06/11 07:53:14;;;;;;;4.25;3.85;;;23.80;91.80;;;;;;5081616;28;20082;-78
2021/06/11 07:55:41;;;;;;;4.35;4.05;;;23.80;91.10;;;;;;5054870;28;20039;-78
2021/06/11 07:58:07;;;;;;;4.60;4.30;;;23.90;90.80;;;;;;5078501;28;20386;-78
2021/06/11 08:00:33;;;;;;;7.32;6.63;;;23.90;91.20;;;;;;5082298;28;20031;-78
2021/06/11 08:03:00;;;;;;;7.22;6.60;;;24.00;91.40;;;;;;5083813;28;20024;-78
2021/06/11 08:05:27;;;;;;;7.50;6.80;;;24.10;91.80;;;;;;5082223;28;20377;-78
2021/06/11 08:07:53;;;;;;;13.10;7.75;;;24.10;91.80;;;;;;5091155;28;20016;-78
2021/06/11 08:10:20;;;;;;;9.05;6.90;;;24.10;91.60;;;;;;5091845;28;20520;-78
2021/06/11 08:12:46;;;;;;;7.22;6.32;;;24.10;91.40;;;;;;5091667;28;20359;-78
2021/06/11 08:15:13;;;;;;;10.38;7.15;;;24.20;91.90;;;;;;5083976;28;20089;-78
2021/06/11 08:17:39;;;;;;;9.38;7.10;;;24.20;91.90;;;;;;5054572;28;20509;-78
2021/06/11 08:20:06;;;;;;;8.57;6.82;;;24.20;91.40;;;;;;5076058;28;20394;-78
2021/06/11 08:22:32;;;;;;;9.60;7.35;;;24.20;90.80;;;;;;5069979;28;20095;-78
2021/06/11 08:24:58;;;;;;;10.52;7.20;;;24.20;91.50;;;;;;5082738;28;20029;-77
2021/06/11 08:27:24;;;;;;;6.45;5.82;;;24.20;90.90;;;;;;5087302;28;20093;-78
2021/06/11 08:29:49;;;;;;;7.07;6.38;;;24.20;91.90;;;;;;5069952;28;20085;-78
2021/06/11 08:32:15;;;;;;;10.10;7.80;;;24.30;91.50;;;;;;5073536;28;20502;-78
2021/06/11 08:34:43;;;;;;;12.68;7.72;;;24.30;90.40;;;;;;5054525;28;20024;-75
2021/06/11 08:37:11;;;;;;;12.68;7.35;;;24.20;90.10;;;;;;5079660;28;20033;-77
2021/06/11 08:39:37;;;;;;;8.80;7.43;;;24.20;90.60;;;;;;5073194;28;20482;-77
2021/06/11 08:42:06;;;;;;;8.70;6.68;;;24.30;90.70;;;;;;5083574;28;20035;-78
2021/06/11 08:44:32;;;;;;;9.40;7.13;;;24.40;91.40;;;;;;5090450;28;20040;-77
2021/06/11 08:46:57;;;;;;;7.72;7.00;;;24.50;91.80;;;;;;5090062;28;20385;-77
2021/06/11 08:49:24;;;;;;;9.18;8.13;;;24.60;90.70;;;;;;5065883;28;20028;-77
2021/06/11 08:51:59;;;;;;;8.80;7.30;;;24.50;88.70;;;;;;5094564;28;20036;-77
2021/06/11 08:54:26;;;;;;;7.72;6.93;;;24.60;90.10;;;;;;5078961;28;20082;-77
2021/06/11 08:56:53;;;;;;;7.90;5.63;;;24.60;91.10;;;;;;5069424;28;20032;-77
2021/06/11 08:59:19;;;;;;;8.43;7.28;;;24.60;91.50;;;;;;5094198;28;20034;-77
2021/06/11 09:01:45;;;;;;;11.55;7.22;;;24.70;90.00;;;;;;5093648;28;20020;-77
2021/06/11 09:04:10;;;;;;;6.63;6.00;;;24.70;89.50;;;;;;5089386;28;20107;-77
2021/06/11 09:06:36;;;;;;;8.30;7.50;;;24.70;90.10;;;;;;5093038;28;20604;-77
2021/06/11 09:09:05;;;;;;;7.28;6.57;;;24.80;90.00;;;;;;5089892;28;20024;-77
2021/06/11 09:11:32;;;;;;;10.20;6.82;;;24.80;90.30;;;;;;5086788;28;20024;-76
2021/06/11 09:14:11;;;;;;;7.68;6.65;;;24.90;91.00;;;;;;5072373;28;20052;-76
2021/06/11 09:16:45;;;;;;;8.77;7.63;;;25.00;90.70;;;;;;5083265;28;20015;-76
2021/06/11 09:19:17;;;;;;;9.30;6.78;;;25.10;91.20;;;;;;5073072;28;20035;-77
2021/06/11 09:21:45;;;;;;;10.13;7.65;;;25.20;90.80;;;;;;5091733;28;20084;-77
2021/06/11 09:24:23;;;;;;;9.57;7.32;;;25.30;90.70;;;;;;5071689;28;20040;-77
2021/06/11 09:26:58;;;;;;;12.40;7.00;;;25.40;90.50;;;;;;5074333;28;20024;-76
2021/06/11 09:29:35;;;;;;;7.95;7.25;;;25.50;89.70;;;;;;5089708;28;20069;-77
2021/06/11 09:32:19;;;;;;;7.85;7.13;;;25.50;88.30;;;;;;5082328;28;20055;-76
2021/06/11 09:34:48;;;;;;;10.50;7.70;;;25.60;90.00;;;;;;5086773;28;20056;-77
2021/06/11 09:37:16;;;;;;;10.98;8.25;;;25.60;89.10;;;;;;5067014;28;20030;-77
2021/06/11 09:39:43;;;;;;;12.10;8.75;;;25.70;89.30;;;;;;5074786;28;20034;-77
2021/06/11 09:42:11;;;;;;;10.60;6.95;;;25.80;89.00;;;;;;5093229;28;20024;-76
2021/06/11 09:44:37;;;;;;;10.50;7.10;;;25.80;88.50;;;;;;5086324;28;20092;-76
2021/06/11 09:47:03;;;;;;;10.85;9.23;;;25.80;88.40;;;;;;5083435;28;20108;-76
2021/06/11 09:49:43;;;;;;;10.68;8.27;;;25.80;86.00;;;;;;5072711;28;20115;-76
2021/06/11 09:52:11;;;;;;;8.48;7.65;;;25.80;86.60;;;;;;5093339;28;20032;-77
2021/06/11 09:54:37;;;;;;;11.50;8.57;;;25.90;87.50;;;;;;5094004;28;20028;-76
2021/06/11 09:57:19;;;;;;;11.48;9.15;;;25.90;84.20;;;;;;5081248;28;20029;-77
2021/06/11 09:59:45;;;;;;;11.27;8.35;;;25.90;83.80;;;;;;5093078;28;20487;-77
2021/06/11 10:02:21;;;;;;;13.23;9.82;;;25.90;83.30;;;;;;5085817;28;20021;-77
2021/06/11 10:04:47;;;;;;;11.75;10.23;;;25.90;84.40;;;;;;5087756;28;20016;-76
2021/06/11 10:07:13;;;;;;;16.98;10.25;;;25.90;85.50;;;;;;5088725;28;20394;-77
2021/06/11 10:09:41;;;;;;;15.73;11.13;;;25.90;84.90;;;;;;5078391;28;20028;-76
2021/06/11 10:12:07;;;;;;;13.85;11.63;;;26.00;88.10;;;;;;5084880;28;20031;-76
2021/06/11 10:14:34;;;;;;;20.42;15.13;;;26.10;87.60;;;;;;5090574;28;20036;-76
2021/06/11 10:17:01;;;;;;;19.27;13.45;;;26.10;85.80;;;;;;5077420;28;20154;-76
2021/06/11 10:19:27;;;;;;;16.63;13.50;;;26.10;87.50;;;;;;5091034;28;20374;-77
2021/06/11 10:21:58;;;;;;;18.17;13.25;;;26.10;87.80;;;;;;5091422;28;20112;-76
2021/06/11 10:24:24;;;;;;;21.00;15.40;;;26.10;88.10;;;;;;5065829;28;20385;-77
2021/06/11 10:26:50;;;;;;;17.63;12.68;;;26.10;87.00;;;;;;5062537;28;20012;-76
2021/06/11 10:29:19;;;;;;;24.20;16.25;;;26.10;87.80;;;;;;5091544;28;20060;-77
2021/06/11 10:31:46;;;;;;;29.17;17.13;;;26.10;87.70;;;;;;5078971;28;20091;-77
2021/06/11 10:34:12;;;;;;;23.77;15.63;;;26.20;87.70;;;;;;5082252;28;20029;-77
2021/06/11 10:36:46;;;;;;;28.42;15.77;;;26.20;87.50;;;;;;5075604;28;20133;-77
2021/06/11 10:39:15;;;;;;;18.38;13.25;;;26.20;88.80;;;;;;5092073;28;20032;-78
2021/06/11 10:41:59;;;;;;;26.80;18.10;;;26.30;89.60;;;;;;5089160;28;20012;-77
2021/06/11 10:44:45;;;;;;;25.00;16.45;;;26.40;87.10;;;;;;5087922;28;20032;-77
2021/06/11 10:47:17;;;;;;;25.80;16.08;;;26.60;87.80;;;;;;5086728;28;20019;-77
2021/06/11 10:49:55;;;;;;;26.35;17.08;;;26.70;87.30;;;;;;5091811;28;20048;-77
2021/06/11 10:52:49;;;;;;;25.25;16.20;;;26.80;85.60;;;;;;5080546;28;20115;-77
2021/06/11 10:55:15;;;;;;;23.40;16.20;;;27.10;85.50;;;;;;5088442;28;20023;-77
2021/06/11 10:57:51;;;;;;;22.58;16.13;;;27.20;86.30;;;;;;5092055;28;20032;-77
2021/06/11 11:00:21;;;;;;;25.23;15.57;;;27.20;85.00;;;;;;5071748;28;20054;-77
2021/06/11 11:02:49;;;;;;;30.60;19.90;;;27.30;83.70;;;;;;5069718;28;20486;-77
2021/06/11 11:05:36;;;;;;;27.02;16.48;;;27.30;80.10;;;;;;5064445;28;20029;-77
2021/06/11 11:08:05;;;;;;;21.58;15.25;;;27.20;82.70;;;;;;5090827;28;20017;-77
2021/06/11 11:10:48;;;;;;;27.75;17.75;;;27.40;82.70;;;;;;5083294;28;20351;-77
2021/06/11 11:13:36;;;;;;;21.08;14.25;;;27.30;80.20;;;;;;5089602;28;20061;-78
2021/06/11 11:16:19;;;;;;;22.15;14.93;;;27.50;83.10;;;;;;5092388;28;20020;-77
2021/06/11 11:18:45;;;;;;;24.27;15.95;;;27.70;80.90;;;;;;5083678;28;20028;-78
2021/06/11 11:21:22;;;;;;;19.23;15.48;;;27.80;79.40;;;;;;5090993;28;20027;-77
2021/06/11 11:23:59;;;;;;;21.45;12.50;;;27.90;78.70;;;;;;5090192;28;20024;-77
2021/06/11 11:26:50;;;;;;;20.67;13.13;;;28.00;79.80;;;;;;5090859;28;20035;-77
2021/06/11 11:29:19;;;;;;;16.77;12.13;;;28.20;76.70;;;;;;5076537;28;20490;-78
2021/06/11 11:31:59;;;;;;;22.80;15.27;;;28.30;77.10;;;;;;5057163;28;20040;-77
2021/06/11 11:34:25;;;;;;;20.90;12.82;;;28.30;76.20;;;;;;5081164;28;20115;-77
2021/06/11 11:36:51;;;;;;;22.90;15.93;;;28.40;75.90;;;;;;5085237;28;20029;-77
2021/06/11 11:39:17;;;;;;;14.45;11.55;;;28.40;74.00;;;;;;5069155;28;20367;-77
2021/06/11 11:41:44;;;;;;;14.52;11.20;;;28.70;76.30;;;;;;5088896;28;20211;-78
2021/06/11 11:44:10;;;;;;;15.80;11.52;;;28.90;76.80;;;;;;5085053;28;20017;-77
2021/06/11 11:46:35;;;;;;;16.88;11.13;;;29.10;76.30;;;;;;5079717;28;20476;-77
2021/06/11 11:49:01;;;;;;;17.50;12.82;;;28.90;74.70;;;;;;5075469;28;20099;-77
2021/06/11 11:51:27;;;;;;;14.57;12.20;;;28.90;72.50;;;;;;5091128;28;20527;-77
2021/06/11 11:53:52;;;;;;;18.70;12.48;;;28.90;73.60;;;;;;5091858;28;20020;-77
2021/06/11 11:56:18;;;;;;;16.17;11.70;;;29.00;72.20;;;;;;5090393;28;20028;-77
2021/06/11 11:58:44;;;;;;;12.43;10.00;;;29.00;71.60;;;;;;5091315;28;20027;-77
2021/06/11 12:01:10;;;;;;;11.15;9.18;;;28.90;71.40;;;;;;5077406;28;20021;-77
2021/06/11 12:03:36;;;;;;;13.93;10.18;;;28.80;70.00;;;;;;5086386;28;20028;-77
2021/06/11 12:06:02;;;;;;;13.20;9.02;;;28.80;70.00;;;;;;5073630;28;20466;-77
2021/06/11 12:08:28;;;;;;;10.25;8.57;;;28.60;69.50;;;;;;5082440;28;20520;-77
2021/06/11 12:10:54;;;;;;;14.27;9.15;;;28.60;71.80;;;;;;5089219;28;20138;-78
2021/06/11 12:13:20;;;;;;;12.52;9.95;;;28.50;71.30;;;;;;5090306;28;20039;-77
2021/06/11 12:15:45;;;;;;;10.45;8.95;;;28.20;70.70;;;;;;5083794;28;20394;-77
2021/06/11 12:18:11;;;;;;;12.35;9.52;;;28.10;71.60;;;;;;5087568;28;20173;-77
2021/06/11 12:20:38;;;;;;;12.48;10.50;;;28.00;74.40;;;;;;5090601;28;20499;-77
2021/06/11 12:23:04;;;;;;;14.32;10.10;;;27.60;74.10;;;;;;5083980;28;20020;-77
2021/06/11 12:25:31;;;;;;;11.40;9.50;;;27.40;74.70;;;;;;5094269;28;20032;-77
2021/06/11 12:27:57;;;;;;;9.65;8.60;;;27.10;75.30;;;;;;5091789;28;20541;-78
2021/06/11 12:30:23;;;;;;;15.90;11.00;;;27.00;78.10;;;;;;5095214;28;20027;-78
2021/06/11 12:32:49;;;;;;;17.73;10.30;;;26.80;77.50;;;;;;5076250;28;20044;-77
2021/06/11 12:35:17;;;;;;;34.22;14.43;;;26.70;83.70;;;;;;5074372;28;20111;-84
2021/06/11 12:37:43;;;;;;;27.50;14.15;;;26.20;92.50;;;;;;5094206;28;20020;-81
2021/06/11 12:40:10;;;;;;;32.13;15.93;;;25.60;95.10;;;;;;5078042;28;20028;-80
2021/06/11 12:42:39;;;;;;;15.60;10.23;;;24.50;96.20;;;;;;5078144;28;20031;-79
2021/06/11 12:45:07;;;;;;;13.52;7.45;;;23.60;95.10;;;;;;5078202;28;20024;-81
2021/06/11 12:47:35;;;;;;;11.57;7.05;;;22.70;95.00;;;;;;5096362;28;20032;-80
2021/06/11 12:50:01;;;;;;;10.20;5.90;;;22.30;97.70;;;;;;5077936;28;20027;-80